createdAt,value
2022-11-29T00:01:05.630Z,100404.59
2022-11-29T00:03:33.210Z,100401.81
2022-11-29T00:06:11.799Z,100404.59
2022-11-29T00:08:39.191Z,100413.31
2022-11-29T00:11:13.643Z,100394.38
2022-11-29T00:13:40.381Z,100401.16
2022-11-29T00:16:10.755Z,100406.28
2022-11-29T00:18:37.872Z,100406.28
2022-11-29T00:21:08.327Z,100405.44
2022-11-29T00:23:35.458Z,100414.28
2022-11-29T00:26:08.197Z,100403.81
2022-11-29T00:28:36.020Z,100409.69
2022-11-29T00:31:32.559Z,100409.69
2022-11-29T00:34:01.697Z,100411.63
2022-11-29T00:36:28.883Z,100404.38
2022-11-29T00:38:55.457Z,100411.38
2022-11-29T00:41:22.110Z,100408.59
2022-11-29T00:43:48.466Z,100414.78
2022-11-29T00:46:15.199Z,100407.75
2022-11-29T00:48:41.662Z,100413.09
2022-11-29T00:51:08.387Z,100419.16
2022-11-29T00:53:35.980Z,100420.97
2022-11-29T00:56:03.658Z,100412.88
2022-11-29T00:58:30.526Z,100408.59
2022-11-29T01:00:57.030Z,100406.69
2022-11-29T01:03:24.870Z,100412.88
2022-11-29T01:09:38.028Z,100406.91
2022-11-29T01:12:04.490Z,100417.34
2022-11-29T01:14:30.957Z,100415.56
2022-11-29T01:16:57.398Z,100428.09
2022-11-29T01:19:23.801Z,100411.50
2022-11-29T01:21:50.137Z,100427.91
2022-11-29T01:24:16.446Z,100425.31
2022-11-29T01:26:42.758Z,100420.00
2022-11-29T01:29:13.016Z,100422.66
2022-11-29T01:31:39.633Z,100426.19
2022-11-29T01:34:07.179Z,100427.06
2022-11-29T01:36:34.393Z,100425.13
2022-11-29T01:39:02.169Z,100436.63
2022-11-29T01:41:31.380Z,100435.88
2022-11-29T01:44:04.556Z,100440.03
2022-11-29T01:46:42.057Z,100438.53
2022-11-29T01:49:18.653Z,100440.13
2022-11-29T01:51:50.118Z,100440.03
2022-11-29T01:54:17.479Z,100440.13
2022-11-29T01:56:46.142Z,100439.28
2022-11-29T01:59:15.590Z,100436.50
2022-11-29T02:01:42.257Z,100435.78
2022-11-29T02:04:09.304Z,100443.66
2022-11-29T02:06:39.196Z,100433.00
2022-11-29T02:09:15.655Z,100432.16
2022-11-29T02:12:06.537Z,100441.59
2022-11-29T02:15:05.962Z,100444.38
2022-11-29T02:18:10.471Z,100440.97
2022-11-29T02:21:03.225Z,100440.75
2022-11-29T02:23:51.318Z,100442.69
2022-11-29T02:26:45.702Z,100437.34
2022-11-29T02:29:37.474Z,100439.81
2022-11-29T02:32:25.176Z,100440.75
2022-11-29T02:35:29.355Z,100444.38
2022-11-29T02:38:07.749Z,100442.47
2022-11-29T02:40:46.173Z,100445.03
2022-11-29T02:43:40.674Z,100448.66
2022-11-29T02:46:36.124Z,100438.09
2022-11-29T02:49:27.123Z,100440.56
2022-11-29T02:52:07.406Z,100445.03
2022-11-29T02:54:50.056Z,100450.25
2022-11-29T02:57:42.833Z,100448.31
2022-11-29T03:00:13.787Z,100450.97
2022-11-29T03:03:15.680Z,100454.50
2022-11-29T03:05:45.029Z,100455.34
2022-11-29T03:08:34.267Z,100457.03
2022-11-29T03:11:12.385Z,100444.38
2022-11-29T03:13:55.606Z,100445.66
2022-11-29T03:16:42.554Z,100457.16
2022-11-29T03:19:35.158Z,100458.75
2022-11-29T03:22:22.486Z,100463.22
2022-11-29T03:25:24.189Z,100463.31
2022-11-29T03:28:11.075Z,100458.00
2022-11-29T03:30:41.623Z,100466.00
2022-11-29T03:33:30.527Z,100468.53
2022-11-29T03:36:07.118Z,100458.22
2022-11-29T03:38:41.842Z,100464.06
2022-11-29T03:41:14.107Z,100472.06
2022-11-29T03:43:55.704Z,100470.34
2022-11-29T03:46:44.037Z,100474.72
2022-11-29T03:49:21.817Z,100481.00
2022-11-29T03:52:25.869Z,100476.53
2022-11-29T03:55:30.117Z,100478.25
2022-11-29T03:58:12.680Z,100474.72
2022-11-29T04:00:55.129Z,100465.03
2022-11-29T04:03:58.700Z,100479.13
2022-11-29T04:06:53.173Z,100472.81
2022-11-29T04:09:27.834Z,100479.97
2022-11-29T04:12:12.878Z,100486.13
2022-11-29T04:15:01.041Z,100478.03
2022-11-29T04:17:58.493Z,100473.56
2022-11-29T04:20:48.391Z,100472.72
2022-11-29T04:23:36.677Z,100483.25
2022-11-29T04:26:29.681Z,100487.84
2022-11-29T04:29:01.561Z,100482.50
2022-11-29T04:31:41.006Z,100478.88
2022-11-29T04:34:45.064Z,100486.75
2022-11-29T04:37:22.060Z,100482.50
2022-11-29T04:40:21.463Z,100501.88
2022-11-29T04:43:13.837Z,100498.25
2022-11-29T04:46:17.259Z,100495.72
2022-11-29T04:49:07.296Z,100503.81
2022-11-29T04:52:15.110Z,100512.53
2022-11-29T04:54:56.996Z,100522.34
2022-11-29T04:57:44.060Z,100526.81
2022-11-29T05:00:18.517Z,100518.28
2022-11-29T05:02:58.425Z,100519.56
2022-11-29T05:05:36.246Z,100523.09
2022-11-29T05:08:20.790Z,100532.78
2022-11-29T05:10:55.516Z,100524.69
2022-11-29T05:13:40.172Z,100536.22
2022-11-29T05:16:30.922Z,100541.53
2022-11-29T05:19:28.111Z,100549.41
2022-11-29T05:22:12.282Z,100543.22
2022-11-29T05:24:53.017Z,100537.06
2022-11-29T05:27:48.285Z,100548.56
2022-11-29T05:30:18.327Z,100549.53
2022-11-29T05:33:10.679Z,100546.09
2022-11-29T05:35:44.888Z,100550.69
2022-11-29T05:38:37.346Z,100551.53
2022-11-29T05:41:21.753Z,100542.56
2022-11-29T05:44:04.285Z,100551.53
2022-11-29T05:46:49.385Z,100553.47
2022-11-29T05:49:26.830Z,100551.75
2022-11-29T05:51:59.186Z,100552.84
2022-11-29T05:54:45.898Z,100549.22
2022-11-29T05:57:42.835Z,100557.28
2022-11-29T06:00:12.650Z,100561.00
2022-11-29T06:03:03.515Z,100559.19
2022-11-29T06:05:45.696Z,100570.59
2022-11-29T06:08:14.700Z,100571.56
2022-11-29T06:10:56.312Z,100565.38
2022-11-29T06:13:57.288Z,100566.16
2022-11-29T06:16:36.308Z,100570.59
2022-11-29T06:19:37.628Z,100575.00
2022-11-29T06:22:30.330Z,100573.06
2022-11-29T06:25:30.581Z,100580.31
2022-11-29T06:28:26.734Z,100584.69
2022-11-29T06:31:01.973Z,100589.78
2022-11-29T06:33:39.117Z,100579.25
2022-11-29T06:37:04.167Z,100590.75
2022-11-29T06:39:30.854Z,100591.81
2022-11-29T06:41:57.175Z,100587.47
2022-11-29T06:44:23.796Z,100591.72
2022-11-29T06:47:06.287Z,100597.78
2022-11-29T06:49:42.803Z,100593.00
2022-11-29T06:52:34.541Z,100599.28
2022-11-29T06:55:07.786Z,100607.16
2022-11-29T06:57:40.321Z,100608.88
2022-11-29T07:00:30.270Z,100609.06
2022-11-29T07:03:25.586Z,100617.16
2022-11-29T07:05:52.258Z,100615.44
2022-11-29T07:08:22.034Z,100620.66
2022-11-29T07:10:51.227Z,100618.84
2022-11-29T07:13:18.512Z,100623.25
2022-11-29T07:16:21.300Z,100621.44
2022-11-29T07:19:08.134Z,100635.63
2022-11-29T07:21:49.204Z,100632.72
2022-11-29T07:24:37.686Z,100636.88
2022-11-29T07:27:12.820Z,100637.84
2022-11-29T07:30:04.875Z,100636.13
2022-11-29T07:32:50.362Z,100635.28
2022-11-29T07:35:29.649Z,100649.34
2022-11-29T07:38:20.638Z,100643.16
2022-11-29T07:41:12.235Z,100649.28
2022-11-29T07:43:51.866Z,100651.97
2022-11-29T07:46:18.457Z,100652.00
2022-11-29T07:48:44.824Z,100656.09
2022-11-29T07:51:11.296Z,100647.25
2022-11-29T07:53:42.275Z,100652.38
2022-11-29T07:56:12.541Z,100651.72
2022-11-29T07:58:39.676Z,100653.31
2022-11-29T08:01:06.252Z,100656.84
2022-11-29T08:03:35.265Z,100654.94
2022-11-29T08:06:03.770Z,100656.00
2022-11-29T08:08:30.182Z,100663.97
2022-11-29T08:10:56.510Z,100669.13
2022-11-29T08:13:23.066Z,100667.31
2022-11-29T08:15:49.506Z,100668.03
2022-11-29T08:18:16.190Z,100669.75
2022-11-29T08:20:42.955Z,100668.69
2022-11-29T08:23:12.551Z,100674.13
2022-11-29T08:25:39.681Z,100666.00
2022-11-29T08:28:06.155Z,100676.59
2022-11-29T08:30:32.596Z,100676.16
2022-11-29T08:32:58.890Z,100680.28
2022-11-29T08:35:25.486Z,100690.53
2022-11-29T08:37:52.212Z,100686.63
2022-11-29T08:40:18.628Z,100694.38
2022-11-29T08:42:45.037Z,100687.13
2022-11-29T08:45:12.312Z,100695.78
2022-11-29T08:47:40.947Z,100693.97
2022-11-29T08:50:15.881Z,100697.38
2022-11-29T08:53:06.467Z,100699.06
2022-11-29T08:55:39.781Z,100702.59
2022-11-29T08:58:09.354Z,100709.75
2022-11-29T09:00:36.422Z,100706.09
2022-11-29T09:03:23.353Z,100712.41
2022-11-29T09:05:50.055Z,100703.44
2022-11-29T09:08:16.439Z,100710.03
2022-11-29T09:10:43.202Z,100712.81
2022-11-29T09:13:10.842Z,100715.47
2022-11-29T09:15:38.748Z,100721.88
2022-11-29T09:18:05.783Z,100726.81
2022-11-29T09:20:33.422Z,100722.97
2022-11-29T09:23:00.251Z,100727.22
2022-11-29T09:25:27.276Z,100732.34
2022-11-29T09:27:57.414Z,100723.69
2022-11-29T09:30:24.005Z,100729.88
2022-11-29T09:32:50.581Z,100737.13
2022-11-29T09:35:17.405Z,100736.59
2022-11-29T09:37:43.761Z,100741.19
2022-11-29T09:40:27.520Z,100745.56
2022-11-29T09:43:07.414Z,100741.72
2022-11-29T09:45:41.357Z,100745.03
2022-11-29T09:48:25.862Z,100744.94
2022-11-29T09:51:02.274Z,100751.00
2022-11-29T09:53:37.981Z,100752.06
2022-11-29T09:56:33.140Z,100751.84
2022-11-29T09:59:21.658Z,100745.03
2022-11-29T10:02:19.703Z,100745.03
2022-11-29T10:04:56.983Z,100749.63
2022-11-29T10:07:34.669Z,100749.53
2022-11-29T10:10:14.283Z,100753.66
2022-11-29T10:12:50.127Z,100760.50
2022-11-29T10:15:22.769Z,100757.72
2022-11-29T10:18:10.918Z,100757.44
2022-11-29T10:20:43.552Z,100753.56
2022-11-29T10:23:24.367Z,100757.19
2022-11-29T10:25:56.354Z,100761.47
2022-11-29T10:28:27.066Z,100750.69
2022-11-29T10:30:55.513Z,100745.34
2022-11-29T10:33:28.240Z,100754.19
2022-11-29T10:36:05.214Z,100746.75
2022-11-29T10:38:32.099Z,100751.09
2022-11-29T10:41:04.604Z,100757.28
2022-11-29T10:43:31.345Z,100745.88
2022-11-29T10:45:58.610Z,100752.81
2022-11-29T10:48:31.655Z,100742.78
2022-11-29T10:50:58.641Z,100753.47
2022-11-29T10:53:35.556Z,100757.72
2022-11-29T10:56:22.312Z,100753.84
2022-11-29T10:59:04.995Z,100747.16
2022-11-29T11:01:33.825Z,100751.53
2022-11-29T11:04:03.124Z,100756.09
2022-11-29T11:06:56.145Z,100760.28
2022-11-29T11:09:26.600Z,100744.63
2022-11-29T11:11:57.242Z,100759.44
2022-11-29T11:14:37.831Z,100755.78
2022-11-29T11:17:21.234Z,100750.75
2022-11-29T11:19:56.863Z,100754.75
2022-11-29T11:22:24.950Z,100756.53
2022-11-29T11:25:07.067Z,100759.00
2022-11-29T11:27:42.016Z,100759.84
2022-11-29T11:30:23.355Z,100757.81
2022-11-29T11:33:22.304Z,100756.94
2022-11-29T11:36:03.952Z,100762.19
2022-11-29T11:38:30.669Z,100763.03
2022-11-29T11:41:02.978Z,100763.91
2022-11-29T11:43:29.556Z,100761.31
2022-11-29T11:45:56.020Z,100762.19
2022-11-29T11:48:22.746Z,100768.16
2022-11-29T11:50:54.682Z,100761.75
2022-11-29T11:53:27.881Z,100757.91
2022-11-29T11:56:00.646Z,100764.97
2022-11-29T11:58:29.813Z,100774.53
2022-11-29T12:01:14.049Z,100775.94
2022-11-29T12:03:52.597Z,100768.91
2022-11-29T12:06:43.005Z,100760.47
2022-11-29T12:09:09.822Z,100776.91
2022-11-29T12:11:47.190Z,100772.31
2022-11-29T12:14:23.900Z,100777.53
2022-11-29T12:16:58.762Z,100771.09
2022-11-29T12:19:32.246Z,100770.38
2022-11-29T12:22:06.679Z,100777.41
2022-11-29T12:24:38.983Z,100787.09
2022-11-29T12:27:06.005Z,100788.16
2022-11-29T12:29:34.211Z,100774.50
2022-11-29T12:32:38.092Z,100776.25
2022-11-29T12:35:36.875Z,100778.16
2022-11-29T12:38:22.113Z,100777.81
2022-11-29T12:41:12.709Z,100766.63
2022-11-29T12:44:03.538Z,100783.59
2022-11-29T12:46:31.157Z,100784.56
2022-11-29T12:49:06.997Z,100783.69
2022-11-29T12:51:46.994Z,100784.94
2022-11-29T12:54:34.035Z,100779.09
2022-11-29T12:57:12.800Z,100784.63
2022-11-29T13:00:05.284Z,100784.31
2022-11-29T13:02:49.796Z,100787.31
2022-11-29T13:05:33.626Z,100793.97
2022-11-29T13:08:40.870Z,100785.59
2022-11-29T13:11:25.560Z,100792.66
2022-11-29T13:14:13.834Z,100791.78
2022-11-29T13:17:02.189Z,100795.22
2022-11-29T13:19:44.197Z,100792.34
2022-11-29T13:22:39.526Z,100802.81
2022-11-29T13:25:18.749Z,100801.50
2022-11-29T13:27:56.778Z,100802.47
2022-11-29T13:30:23.171Z,100799.06
2022-11-29T13:33:14.993Z,100800.88
2022-11-29T13:35:53.766Z,100799.06
2022-11-29T13:38:26.394Z,100795.31
2022-11-29T13:41:04.578Z,100793.00
2022-11-29T13:43:41.213Z,100798.22
2022-11-29T13:46:28.008Z,100807.06
2022-11-29T13:48:54.687Z,100802.03
2022-11-29T13:51:22.756Z,100812.72
2022-11-29T13:53:49.572Z,100802.78
2022-11-29T13:56:48.375Z,100811.56
2022-11-29T13:59:29.396Z,100809.38
2022-11-29T14:01:58.199Z,100810.25
2022-11-29T14:04:28.879Z,100814.63
2022-11-29T14:07:11.297Z,100813.56
2022-11-29T14:09:44.963Z,100814.97
2022-11-29T14:12:41.356Z,100819.09
2022-11-29T14:15:24.275Z,100819.94
2022-11-29T14:18:03.455Z,100820.19
2022-11-29T14:20:29.781Z,100821.28
2022-11-29T14:23:04.804Z,100826.59
2022-11-29T14:25:54.959Z,100832.81
2022-11-29T14:28:21.314Z,100826.59
2022-11-29T14:30:52.998Z,100826.06
2022-11-29T14:33:23.708Z,100834.63
2022-11-29T14:36:02.972Z,100837.28
2022-11-29T14:39:04.293Z,100844.53
2022-11-29T14:41:49.278Z,100838.16
2022-11-29T14:44:25.949Z,100845.19
2022-11-29T14:47:01.822Z,100838.75
2022-11-29T14:49:28.933Z,100846.78
2022-11-29T14:52:08.691Z,100843.03
2022-11-29T14:54:36.913Z,100845.59
2022-11-29T14:57:40.768Z,100846.53
2022-11-29T15:00:12.518Z,100852.13
2022-11-29T15:02:44.304Z,100858.00
2022-11-29T15:05:32.026Z,100854.56
2022-11-29T15:08:15.019Z,100857.22
2022-11-29T15:10:47.955Z,100853.69
2022-11-29T15:13:23.122Z,100858.41
2022-11-29T15:15:55.492Z,100865.59
2022-11-29T15:18:53.299Z,100863.88
2022-11-29T15:21:45.087Z,100869.34
2022-11-29T15:24:13.824Z,100867.63
2022-11-29T15:26:58.089Z,100872.97
2022-11-29T15:29:25.028Z,100868.47
2022-11-29T15:31:57.397Z,100871.25
2022-11-29T15:34:32.373Z,100868.78
2022-11-29T15:36:59.893Z,100867.94
2022-11-29T15:39:27.819Z,100879.81
2022-11-29T15:41:59.815Z,100877.47
2022-11-29T15:44:26.226Z,100894.97
2022-11-29T15:46:52.559Z,100891.44
2022-11-29T15:49:27.029Z,100888.75
2022-11-29T15:52:00.880Z,100887.19
2022-11-29T15:54:38.537Z,100888.56
2022-11-29T15:57:10.767Z,100892.94
2022-11-29T15:59:47.748Z,100899.69
2022-11-29T16:02:35.640Z,100903.41
2022-11-29T16:05:16.424Z,100898.81
2022-11-29T16:07:45.508Z,100907.69
2022-11-29T16:10:18.817Z,100908.00
2022-11-29T16:13:31.017Z,100911.09
2022-11-29T16:16:12.457Z,100913.31
2022-11-29T16:18:40.960Z,100907.34
2022-11-29T16:21:20.397Z,100911.91
2022-11-29T16:23:46.788Z,100913.09
2022-11-29T16:26:15.819Z,100906.78
2022-11-29T16:28:45.125Z,100907.09
2022-11-29T16:31:18.088Z,100914.34
2022-11-29T16:33:47.325Z,100910.09
2022-11-29T16:36:26.443Z,100918.09
2022-11-29T16:38:57.508Z,100902.38
2022-11-29T16:41:32.831Z,100915.94
2022-11-29T16:44:02.993Z,100913.47
2022-11-29T16:46:32.158Z,100911.56
2022-11-29T16:49:03.596Z,100913.47
2022-11-29T16:51:45.657Z,100914.34
2022-11-29T16:54:27.828Z,100911.78
2022-11-29T16:56:56.237Z,100917.97
2022-11-29T16:59:27.917Z,100922.34
2022-11-29T17:01:56.234Z,100926.38
2022-11-29T17:04:24.092Z,100930.00
2022-11-29T17:06:55.731Z,100930.69
2022-11-29T17:09:28.291Z,100936.03
2022-11-29T17:11:55.794Z,100928.97
2022-11-29T17:14:22.498Z,100936.03
2022-11-29T17:16:52.054Z,100927.25
2022-11-29T17:19:20.565Z,100936.19
2022-11-29T17:21:47.523Z,100930.97
2022-11-29T17:24:16.357Z,100932.78
2022-11-29T17:26:43.524Z,100926.03
2022-11-29T17:29:11.460Z,100933.19
2022-11-29T17:31:38.436Z,100935.00
2022-11-29T17:34:05.364Z,100937.59
2022-11-29T17:36:31.988Z,100928.06
2022-11-29T17:39:00.229Z,100942.94
2022-11-29T17:41:27.237Z,100943.84
2022-11-29T17:43:55.475Z,100933.69
2022-11-29T17:46:24.397Z,100938.75
2022-11-29T17:48:52.103Z,100940.56
2022-11-29T17:51:50.013Z,100947.81
2022-11-29T17:54:07.997Z,100940.56
2022-11-29T17:56:34.626Z,100950.38
2022-11-29T17:59:03.364Z,100952.06
2022-11-29T18:01:33.547Z,100940.56
2022-11-29T18:04:01.872Z,100953.78
2022-11-29T18:06:34.805Z,100950.56
2022-11-29T18:09:02.752Z,100953.44
2022-11-29T18:11:45.245Z,100955.44
2022-11-29T18:14:15.944Z,100957.44
2022-11-29T18:16:42.821Z,100963.19
2022-11-29T18:19:12.542Z,100971.59
2022-11-29T18:21:39.302Z,100967.84
2022-11-29T18:24:06.642Z,100966.91
2022-11-29T18:26:35.063Z,100973.00
2022-11-29T18:29:01.491Z,100975.22
2022-11-29T18:31:36.671Z,100965.63
2022-11-29T18:34:07.059Z,100978.38
2022-11-29T18:36:37.435Z,100971.44
2022-11-29T18:39:07.213Z,100982.09
2022-11-29T18:41:33.514Z,100976.94
2022-11-29T18:44:05.803Z,100974.28
2022-11-29T18:46:32.998Z,100987.06
2022-11-29T18:49:03.531Z,100980.19
2022-11-29T18:51:31.027Z,100964.00
2022-11-29T18:53:58.624Z,100974.38
2022-11-29T18:56:27.955Z,100986.81
2022-11-29T18:59:01.551Z,100986.81
2022-11-29T19:01:30.911Z,100987.13
2022-11-29T19:03:59.242Z,100989.81
2022-11-29T19:06:38.576Z,101001.22
2022-11-29T19:09:11.606Z,100998.44
2022-11-29T19:11:38.437Z,100999.19
2022-11-29T19:14:11.014Z,100999.19
2022-11-29T19:16:39.265Z,101001.97
2022-11-29T19:19:05.705Z,101012.81
2022-11-29T19:21:34.439Z,100998.75
2022-11-29T19:24:03.256Z,101003.78
2022-11-29T19:26:31.262Z,101012.81
2022-11-29T19:28:59.158Z,101015.28
2022-11-29T19:31:27.013Z,101010.81
2022-11-29T19:33:54.519Z,101010.91
2022-11-29T19:36:28.799Z,101014.28
2022-11-29T19:38:56.045Z,101007.19
2022-11-29T19:41:28.596Z,101013.22
2022-11-29T19:44:00.602Z,101014.09
2022-11-29T19:46:30.715Z,101012.16
2022-11-29T19:48:59.223Z,101015.78
2022-11-29T19:51:27.000Z,101014.09
2022-11-29T19:53:56.404Z,101013.13
2022-11-29T19:56:23.493Z,101006.28
2022-11-29T19:58:50.634Z,101005.22
2022-11-29T20:01:20.136Z,101011.22
2022-11-29T20:03:46.544Z,101002.69
2022-11-29T20:06:15.748Z,101018.25
2022-11-29T20:08:42.746Z,101008.97
2022-11-29T20:11:15.671Z,101012.16
2022-11-29T20:13:44.741Z,101017.69
2022-11-29T20:16:14.574Z,101008.00
2022-11-29T20:18:48.762Z,101016.75
2022-11-29T20:21:21.840Z,101019.41
2022-11-29T20:23:48.546Z,101017.69
2022-11-29T20:26:19.574Z,101018.44
2022-11-29T20:28:47.305Z,101021.13
2022-11-29T20:31:17.168Z,101014.28
2022-11-29T20:33:45.666Z,101019.22
2022-11-29T20:36:30.562Z,101032.44
2022-11-29T20:39:07.194Z,101034.25
2022-11-29T20:41:39.356Z,101039.56
2022-11-29T20:44:06.045Z,101040.34
2022-11-29T20:46:32.621Z,101041.00
2022-11-29T20:49:04.706Z,101036.72
2022-11-29T20:51:41.112Z,101041.84
2022-11-29T20:54:10.876Z,101034.63
2022-11-29T20:56:37.238Z,101035.56
2022-11-29T20:59:03.619Z,101031.09
2022-11-29T21:01:29.981Z,101040.16
2022-11-29T21:03:56.430Z,101040.78
2022-11-29T21:06:22.789Z,101047.19
2022-11-29T21:08:49.613Z,101043.78
2022-11-29T21:11:16.260Z,101049.94
2022-11-29T21:13:42.665Z,101047.75
2022-11-29T21:16:11.535Z,101053.19
2022-11-29T21:18:38.153Z,101051.59
2022-11-29T21:21:24.972Z,101054.28
2022-11-29T21:24:03.609Z,101048.09
2022-11-29T21:26:41.931Z,101059.63
2022-11-29T21:29:23.090Z,101049.81
2022-11-29T21:31:52.448Z,101044.47
2022-11-29T21:34:19.502Z,101044.34
2022-11-29T21:36:52.247Z,101047.88
2022-11-29T21:39:18.787Z,101051.19
2022-11-29T21:41:45.191Z,101045.19
2022-11-29T21:44:11.505Z,101041.81
2022-11-29T21:46:37.864Z,101048.97
2022-11-29T21:49:04.684Z,101043.59
2022-11-29T21:51:31.078Z,101041.38
2022-11-29T21:53:57.383Z,101045.06
2022-11-29T21:56:23.803Z,101045.25
2022-11-29T21:58:50.122Z,101048.97
2022-11-29T22:01:19.005Z,101052.50
2022-11-29T22:03:45.850Z,101052.66
2022-11-29T22:06:14.905Z,101046.47
2022-11-29T22:08:42.261Z,101050.97
2022-11-29T22:11:11.418Z,101050.19
2022-11-29T22:14:00.862Z,101059.16
2022-11-29T22:16:28.561Z,101052.00
2022-11-29T22:18:54.900Z,101051.16
2022-11-29T22:21:22.297Z,101047.63
2022-11-29T22:23:48.598Z,101047.75
2022-11-29T22:26:14.918Z,101046.97
2022-11-29T22:28:41.288Z,101049.81
2022-11-29T22:31:10.253Z,101051.72
2022-11-29T22:33:37.432Z,101046.41
2022-11-29T22:36:10.010Z,101045.53
2022-11-29T22:38:37.092Z,101046.59
2022-11-29T22:41:09.390Z,101053.34
2022-11-29T22:43:37.010Z,101055.69
2022-11-29T22:46:18.938Z,101059.41
2022-11-29T22:48:47.629Z,101061.38
2022-11-29T22:51:19.439Z,101062.19
2022-11-29T22:53:50.960Z,101063.03
2022-11-29T22:56:18.058Z,101071.19
2022-11-29T22:58:45.113Z,101066.72
2022-11-29T23:01:17.894Z,101071.09
2022-11-29T23:03:48.345Z,101064.91
2022-11-29T23:06:19.598Z,101068.25
2022-11-29T23:08:47.894Z,101068.16
2022-11-29T23:11:17.797Z,101062.84
2022-11-29T23:13:44.760Z,101049.03
2022-11-29T23:16:14.554Z,101066.34
2022-11-29T23:18:42.270Z,101057.59
2022-11-29T23:21:10.400Z,101064.91
2022-11-29T23:23:37.419Z,101073.75
2022-11-29T23:26:04.878Z,101073.94
2022-11-29T23:28:31.770Z,101069.66
2022-11-29T23:30:58.748Z,101072.44
2022-11-29T23:33:26.446Z,101068.06
2022-11-29T23:36:00.657Z,101073.28
2022-11-29T23:38:27.112Z,101068.06
2022-11-29T23:40:53.561Z,101071.72
2022-11-29T23:43:20.520Z,101074.41
2022-11-29T23:45:46.872Z,101069.16
2022-11-29T23:48:13.424Z,101064.69
2022-11-29T23:50:40.687Z,101063.66
2022-11-29T23:53:07.046Z,101071.56
2022-11-29T23:55:33.398Z,101064.50
2022-11-29T23:58:03.202Z,101072.44
